createdAt,value
2022-12-29T00:01:07.386Z,18.73
2022-12-29T00:03:14.714Z,18.17
2022-12-29T00:05:21.695Z,19.38
2022-12-29T00:07:30.633Z,18.23
2022-12-29T00:09:38.419Z,17.30
2022-12-29T00:11:46.104Z,18.40
2022-12-29T00:14:11.107Z,18.92
2022-12-29T00:16:17.065Z,19.98
2022-12-29T00:18:23.989Z,20.23
2022-12-29T00:20:47.452Z,20.60
2022-12-29T00:23:12.548Z,21.05
2022-12-29T00:25:36.420Z,20.92
2022-12-29T00:28:06.392Z,21.92
2022-12-29T00:30:33.435Z,23.10
2022-12-29T00:32:57.203Z,21.90
2022-12-29T00:35:13.702Z,22.67
2022-12-29T00:37:41.267Z,23.33
2022-12-29T00:40:06.161Z,22.90
2022-12-29T00:42:36.382Z,23.98
2022-12-29T00:44:44.279Z,24.60
2022-12-29T00:46:51.336Z,26.45
2022-12-29T00:49:15.902Z,27.10
2022-12-29T00:51:25.024Z,25.00
2022-12-29T00:53:32.373Z,33.40
2022-12-29T00:55:43.328Z,35.63
2022-12-29T00:57:50.512Z,34.80
2022-12-29T00:59:57.385Z,35.35
2022-12-29T01:02:04.680Z,33.70
2022-12-29T01:04:12.788Z,29.17
2022-12-29T01:06:19.914Z,27.95
2022-12-29T01:08:26.878Z,26.92
2022-12-29T01:10:32.790Z,24.73
2022-12-29T01:12:46.720Z,20.25
2022-12-29T01:14:53.869Z,19.98
2022-12-29T01:17:01.558Z,21.65
2022-12-29T01:19:09.187Z,20.83
2022-12-29T01:21:16.574Z,18.98
2022-12-29T01:23:24.216Z,16.48
2022-12-29T01:25:31.253Z,18.90
2022-12-29T01:27:41.142Z,19.33
2022-12-29T01:29:48.173Z,18.40
2022-12-29T01:31:55.386Z,18.90
2022-12-29T01:34:03.045Z,18.15
2022-12-29T01:36:11.965Z,13.10
2022-12-29T01:38:18.994Z,8.88
2022-12-29T01:40:26.328Z,8.60
2022-12-29T01:42:33.206Z,10.25
2022-12-29T01:45:04.233Z,8.65
2022-12-29T01:47:12.950Z,9.38
2022-12-29T01:49:23.328Z,13.98
2022-12-29T01:51:31.844Z,13.93
2022-12-29T01:53:40.558Z,13.32
2022-12-29T01:55:52.235Z,13.13
2022-12-29T01:58:02.441Z,13.18
2022-12-29T02:00:16.019Z,10.98
2022-12-29T02:02:32.442Z,12.13
2022-12-29T02:04:46.201Z,11.05
2022-12-29T02:07:01.371Z,11.07
2022-12-29T02:09:09.217Z,10.25
2022-12-29T02:11:16.659Z,11.50
2022-12-29T02:13:24.367Z,10.75
2022-12-29T02:15:40.086Z,11.40
2022-12-29T02:17:59.755Z,10.85
2022-12-29T02:20:56.300Z,9.25
2022-12-29T02:23:23.291Z,12.43
2022-12-29T02:26:02.422Z,9.25
2022-12-29T02:28:37.765Z,8.82
2022-12-29T02:30:58.306Z,8.95
2022-12-29T02:33:17.469Z,8.98
2022-12-29T02:35:34.736Z,8.88
2022-12-29T02:37:53.912Z,8.13
2022-12-29T02:40:10.091Z,9.27
2022-12-29T02:42:26.487Z,9.40
2022-12-29T02:44:41.913Z,9.73
2022-12-29T02:46:55.767Z,9.73
2022-12-29T02:49:13.380Z,9.77
2022-12-29T02:51:25.577Z,10.05
2022-12-29T02:53:51.654Z,8.50
2022-12-29T02:55:59.241Z,8.20
2022-12-29T02:58:21.750Z,8.13
2022-12-29T03:00:30.097Z,7.32
2022-12-29T03:03:13.991Z,7.10
2022-12-29T03:05:37.817Z,6.93
2022-12-29T03:07:51.898Z,7.32
2022-12-29T03:10:07.543Z,7.15
2022-12-29T03:12:23.873Z,7.25
2022-12-29T03:14:52.909Z,6.20
2022-12-29T03:17:06.166Z,6.40
2022-12-29T03:19:23.818Z,5.82
2022-12-29T03:21:54.811Z,6.25
2022-12-29T03:24:02.494Z,6.82
2022-12-29T03:26:15.159Z,6.57
2022-12-29T03:28:26.958Z,6.38
2022-12-29T03:30:36.774Z,6.90
2022-12-29T03:32:48.943Z,6.05
2022-12-29T03:37:10.836Z,6.63
2022-12-29T03:39:18.577Z,7.70
2022-12-29T03:41:29.944Z,7.25
2022-12-29T03:43:38.779Z,7.65
2022-12-29T03:45:46.392Z,7.53
2022-12-29T03:47:53.552Z,7.10
2022-12-29T03:50:02.535Z,7.10
2022-12-29T03:52:13.699Z,7.03
2022-12-29T03:54:24.567Z,6.47
2022-12-29T03:56:33.494Z,6.43
2022-12-29T03:58:42.316Z,7.10
2022-12-29T04:00:53.841Z,6.53
2022-12-29T04:03:01.242Z,8.27
2022-12-29T04:05:10.816Z,8.30
2022-12-29T04:07:18.355Z,7.10
2022-12-29T04:09:25.249Z,7.00
2022-12-29T04:11:34.577Z,6.68
2022-12-29T04:13:44.115Z,7.70
2022-12-29T04:15:55.170Z,6.65
2022-12-29T04:18:03.020Z,6.85
2022-12-29T04:20:29.596Z,6.75
2022-12-29T04:22:38.119Z,6.85
2022-12-29T04:24:45.514Z,8.02
2022-12-29T04:26:54.735Z,7.75
2022-12-29T04:29:27.424Z,7.00
2022-12-29T04:32:00.155Z,7.25
2022-12-29T04:34:09.575Z,6.30
2022-12-29T04:36:18.553Z,6.13
2022-12-29T04:38:27.275Z,6.80
2022-12-29T04:40:34.913Z,7.00
2022-12-29T04:42:42.301Z,6.25
2022-12-29T04:44:49.430Z,7.15
2022-12-29T04:47:22.939Z,7.22
2022-12-29T04:49:36.527Z,7.38
2022-12-29T04:52:23.445Z,7.95
2022-12-29T04:54:31.629Z,7.32
2022-12-29T04:56:50.031Z,6.65
2022-12-29T04:58:57.875Z,6.47
2022-12-29T05:01:05.369Z,6.07
2022-12-29T05:03:12.477Z,6.47
2022-12-29T05:05:22.186Z,6.45
2022-12-29T05:07:32.845Z,6.10
2022-12-29T05:09:41.502Z,5.95
2022-12-29T05:11:48.539Z,5.72
2022-12-29T05:13:55.774Z,5.70
2022-12-29T05:16:02.716Z,6.10
2022-12-29T05:18:10.193Z,5.05
2022-12-29T05:20:17.063Z,5.25
2022-12-29T05:22:24.653Z,5.07
2022-12-29T05:24:33.569Z,5.38
2022-12-29T05:26:40.962Z,5.10
2022-12-29T05:29:06.562Z,5.68
2022-12-29T05:31:13.979Z,5.50
2022-12-29T05:33:21.246Z,5.97
2022-12-29T05:35:30.429Z,6.20
2022-12-29T05:37:37.809Z,4.82
2022-12-29T05:39:46.837Z,4.82
2022-12-29T05:41:54.478Z,4.70
2022-12-29T05:44:27.973Z,4.80
2022-12-29T05:46:58.820Z,4.63
2022-12-29T05:49:41.323Z,5.05
2022-12-29T05:51:57.667Z,4.97
2022-12-29T05:54:04.652Z,5.30
2022-12-29T05:56:13.929Z,4.60
2022-12-29T06:00:43.036Z,4.43
2022-12-29T06:02:50.835Z,4.53
2022-12-29T06:04:58.627Z,5.30
2022-12-29T06:07:06.014Z,4.88
2022-12-29T06:09:21.848Z,5.35
2022-12-29T06:11:30.564Z,4.90
2022-12-29T06:13:39.544Z,5.20
2022-12-29T06:15:47.028Z,4.82
2022-12-29T06:17:54.412Z,5.20
2022-12-29T06:20:02.877Z,4.60
2022-12-29T06:22:12.876Z,5.22
2022-12-29T06:24:38.439Z,4.97
2022-12-29T06:26:47.474Z,4.38
2022-12-29T06:28:54.386Z,4.45
2022-12-29T06:31:04.186Z,4.18
2022-12-29T06:33:11.206Z,4.00
2022-12-29T06:35:18.601Z,5.00
2022-12-29T06:37:29.571Z,4.82
2022-12-29T06:39:36.909Z,5.13
2022-12-29T06:41:48.840Z,5.10
2022-12-29T06:44:16.046Z,4.90
2022-12-29T06:46:41.655Z,4.70
2022-12-29T06:48:49.000Z,4.93
2022-12-29T06:50:56.053Z,4.60
2022-12-29T06:53:03.001Z,4.68
2022-12-29T06:55:10.696Z,4.60
2022-12-29T06:57:19.457Z,5.00
2022-12-29T06:59:26.591Z,5.28
2022-12-29T07:01:34.044Z,4.97
2022-12-29T07:03:41.315Z,4.35
2022-12-29T07:05:48.388Z,4.72
2022-12-29T07:07:55.673Z,4.70
2022-12-29T07:12:29.228Z,4.60
2022-12-29T07:14:42.326Z,4.80
2022-12-29T07:17:04.542Z,4.15
2022-12-29T07:19:11.428Z,4.13
2022-12-29T07:21:18.751Z,4.40
2022-12-29T07:23:25.778Z,5.00
2022-12-29T07:25:33.268Z,5.03
2022-12-29T07:27:41.780Z,4.65
2022-12-29T07:29:49.013Z,4.88
2022-12-29T07:31:55.986Z,5.15
2022-12-29T07:34:03.223Z,4.93
2022-12-29T07:36:11.124Z,4.85
2022-12-29T07:38:18.457Z,4.78
2022-12-29T07:40:25.289Z,5.57
2022-12-29T07:42:32.426Z,5.20
2022-12-29T07:44:41.745Z,4.53
2022-12-29T07:47:07.409Z,5.43
2022-12-29T07:49:14.433Z,5.10
2022-12-29T07:51:21.668Z,5.15
2022-12-29T07:53:28.754Z,5.40
2022-12-29T07:55:35.878Z,5.05
2022-12-29T07:57:42.760Z,4.80
2022-12-29T07:59:51.874Z,4.95
2022-12-29T08:01:58.793Z,5.13
2022-12-29T08:04:06.351Z,5.13
2022-12-29T08:06:14.906Z,4.65
2022-12-29T08:08:22.559Z,4.80
2022-12-29T08:10:29.628Z,4.93
2022-12-29T08:12:36.964Z,4.72
2022-12-29T08:14:43.793Z,5.20
2022-12-29T08:16:52.682Z,4.80
2022-12-29T08:19:00.970Z,4.93
2022-12-29T08:21:08.716Z,4.97
2022-12-29T08:23:15.646Z,4.65
2022-12-29T08:25:23.278Z,5.18
2022-12-29T08:27:31.386Z,4.70
2022-12-29T08:29:38.461Z,5.10
2022-12-29T08:31:45.475Z,4.45
2022-12-29T08:33:57.177Z,4.70
2022-12-29T08:36:04.973Z,4.40
2022-12-29T08:38:13.333Z,4.93
2022-12-29T08:40:20.563Z,4.72
2022-12-29T08:42:30.920Z,4.80
2022-12-29T08:44:37.845Z,5.30
2022-12-29T08:46:45.231Z,5.07
2022-12-29T08:48:52.259Z,5.47
2022-12-29T08:51:01.350Z,4.90
2022-12-29T08:53:08.415Z,5.18
2022-12-29T08:55:15.975Z,5.18
2022-12-29T08:57:23.390Z,5.28
2022-12-29T08:59:54.384Z,5.30
2022-12-29T09:02:02.467Z,5.13
2022-12-29T09:04:17.922Z,4.60
2022-12-29T09:06:27.296Z,5.82
2022-12-29T09:08:36.882Z,6.65
2022-12-29T09:10:44.118Z,5.38
2022-12-29T09:12:50.989Z,5.10
2022-12-29T09:14:58.105Z,4.70
2022-12-29T09:17:21.331Z,4.20
2022-12-29T09:19:28.605Z,4.97
2022-12-29T09:21:37.329Z,4.78
2022-12-29T09:26:07.519Z,4.13
2022-12-29T09:28:14.645Z,4.30
2022-12-29T09:30:21.593Z,4.63
2022-12-29T09:32:33.433Z,4.18
2022-12-29T09:34:41.021Z,5.03
2022-12-29T09:36:49.978Z,7.00
2022-12-29T09:38:58.335Z,11.30
2022-12-29T09:41:10.125Z,11.55
2022-12-29T09:43:44.805Z,8.20
2022-12-29T09:45:59.254Z,5.15
2022-12-29T09:48:09.890Z,4.22
2022-12-29T09:50:25.564Z,7.50
2022-12-29T09:52:39.587Z,8.98
2022-12-29T09:55:00.517Z,7.13
2022-12-29T09:57:17.556Z,7.10
2022-12-29T09:59:28.561Z,5.80
2022-12-29T10:01:40.872Z,4.47
2022-12-29T10:03:51.692Z,4.40
2022-12-29T10:06:06.957Z,4.80
2022-12-29T10:08:31.657Z,4.35
2022-12-29T10:10:44.429Z,4.32
2022-12-29T10:13:12.035Z,4.40
2022-12-29T10:15:33.506Z,4.47
2022-12-29T10:17:48.103Z,4.20
2022-12-29T10:20:16.439Z,4.82
2022-12-29T10:22:35.083Z,4.88
2022-12-29T10:24:46.154Z,4.78
2022-12-29T10:26:55.586Z,4.55
2022-12-29T10:29:07.689Z,4.90
2022-12-29T10:31:22.152Z,5.28
2022-12-29T10:33:35.909Z,5.07
2022-12-29T10:35:45.256Z,6.18
2022-12-29T10:37:57.555Z,5.97
2022-12-29T10:40:23.273Z,6.47
2022-12-29T10:42:32.653Z,7.22
2022-12-29T10:44:40.040Z,7.50
2022-12-29T10:46:52.148Z,7.57
2022-12-29T10:48:59.526Z,7.63
2022-12-29T10:51:08.762Z,7.10
2022-12-29T10:53:23.221Z,8.38
2022-12-29T10:55:36.642Z,11.85
2022-12-29T10:57:47.705Z,14.30
2022-12-29T10:59:54.574Z,20.27
2022-12-29T11:02:15.742Z,21.15
2022-12-29T11:04:46.835Z,19.50
2022-12-29T11:06:54.534Z,17.08
2022-12-29T11:09:03.181Z,14.80
2022-12-29T11:11:13.960Z,14.63
2022-12-29T11:13:23.037Z,14.98
2022-12-29T11:15:30.583Z,12.38
2022-12-29T11:17:48.810Z,11.27
2022-12-29T11:19:55.895Z,16.58
2022-12-29T11:22:18.491Z,12.80
2022-12-29T11:24:28.234Z,11.00
2022-12-29T11:26:37.864Z,9.63
2022-12-29T11:28:46.127Z,17.17
2022-12-29T11:31:04.953Z,19.90
2022-12-29T11:33:13.751Z,31.23
2022-12-29T11:35:35.063Z,33.30
2022-12-29T11:37:44.500Z,41.88
2022-12-29T11:39:58.724Z,49.03
2022-12-29T11:42:11.510Z,42.58
2022-12-29T11:44:18.949Z,30.63
2022-12-29T11:46:29.531Z,22.38
2022-12-29T11:48:43.013Z,25.75
2022-12-29T11:50:57.983Z,23.35
2022-12-29T11:53:08.313Z,18.83
2022-12-29T11:55:24.544Z,21.30
2022-12-29T11:57:34.751Z,19.83
2022-12-29T11:59:53.299Z,18.83
2022-12-29T12:02:02.618Z,16.65
2022-12-29T12:04:14.031Z,15.40
2022-12-29T12:06:26.453Z,14.48
2022-12-29T12:08:39.963Z,11.73
2022-12-29T12:10:51.942Z,9.73
2022-12-29T12:13:10.489Z,9.60
2022-12-29T12:15:23.558Z,8.38
2022-12-29T12:17:41.239Z,8.20
2022-12-29T12:19:52.567Z,8.77
2022-12-29T12:22:05.105Z,8.82
2022-12-29T12:24:27.664Z,8.18
2022-12-29T12:26:39.451Z,8.27
2022-12-29T12:28:55.655Z,7.93
2022-12-29T12:31:03.600Z,8.00
2022-12-29T12:33:18.100Z,7.88
2022-12-29T12:35:35.779Z,8.40
2022-12-29T12:38:01.605Z,8.85
2022-12-29T12:40:31.203Z,7.85
2022-12-29T12:42:51.752Z,7.75
2022-12-29T12:45:24.377Z,7.68
2022-12-29T12:47:55.420Z,7.78
2022-12-29T12:50:44.478Z,8.07
2022-12-29T12:53:10.658Z,7.90
2022-12-29T12:55:38.325Z,7.72
2022-12-29T12:57:57.385Z,7.78
2022-12-29T13:00:12.655Z,8.13
2022-12-29T13:02:32.639Z,7.93
2022-12-29T13:05:02.701Z,7.97
2022-12-29T13:07:19.253Z,8.38
2022-12-29T13:09:42.919Z,7.82
2022-12-29T13:12:05.886Z,8.18
2022-12-29T13:14:25.396Z,7.22
2022-12-29T13:16:40.941Z,7.97
2022-12-29T13:18:56.348Z,7.38
2022-12-29T13:21:11.410Z,7.80
2022-12-29T13:23:27.865Z,7.63
2022-12-29T13:25:41.851Z,7.80
2022-12-29T13:27:56.303Z,7.65
2022-12-29T13:30:07.582Z,7.13
2022-12-29T13:32:29.306Z,7.07
2022-12-29T13:34:44.732Z,7.55
2022-12-29T13:36:56.673Z,7.80
2022-12-29T13:39:10.458Z,7.85
2022-12-29T13:41:22.308Z,7.70
2022-12-29T13:43:31.425Z,7.22
2022-12-29T13:45:40.124Z,7.82
2022-12-29T13:47:53.782Z,7.68
2022-12-29T13:50:04.436Z,8.70
2022-12-29T13:52:17.561Z,8.35
2022-12-29T13:54:33.451Z,8.80
2022-12-29T13:56:44.519Z,9.02
2022-12-29T13:58:58.183Z,8.80
2022-12-29T14:01:12.862Z,9.40
2022-12-29T14:03:47.682Z,9.48
2022-12-29T14:06:21.247Z,10.18
2022-12-29T14:08:28.345Z,8.90
2022-12-29T14:10:38.953Z,9.80
2022-12-29T14:12:47.446Z,10.07
2022-12-29T14:14:55.245Z,9.88
2022-12-29T14:17:15.577Z,9.25
2022-12-29T14:19:28.349Z,9.65
2022-12-29T14:21:37.162Z,9.32
2022-12-29T14:23:46.331Z,7.95
2022-12-29T14:26:17.697Z,7.82
2022-12-29T14:28:29.364Z,7.57
2022-12-29T14:31:03.580Z,7.05
2022-12-29T14:33:17.337Z,7.30
2022-12-29T14:35:47.808Z,7.22
2022-12-29T14:38:13.631Z,7.20
2022-12-29T14:40:24.173Z,6.47
2022-12-29T14:42:33.671Z,6.85
2022-12-29T14:44:52.073Z,6.82
2022-12-29T14:47:04.006Z,6.60
2022-12-29T14:49:21.585Z,6.78
2022-12-29T14:51:40.335Z,6.40
2022-12-29T14:53:50.619Z,6.18
2022-12-29T14:56:01.354Z,6.43
2022-12-29T14:58:13.916Z,6.30
2022-12-29T15:00:24.231Z,6.00
2022-12-29T15:02:40.343Z,6.10
2022-12-29T15:04:48.667Z,6.55
2022-12-29T15:06:58.469Z,5.80
2022-12-29T15:09:11.630Z,6.45
2022-12-29T15:11:22.099Z,6.43
2022-12-29T15:13:41.149Z,6.03
2022-12-29T15:15:48.642Z,6.13
2022-12-29T15:17:55.780Z,6.63
2022-12-29T15:20:05.067Z,6.18
2022-12-29T15:22:15.147Z,6.05
2022-12-29T15:24:22.644Z,6.32
2022-12-29T15:26:42.265Z,6.47
2022-12-29T15:28:50.506Z,7.05
2022-12-29T15:31:05.585Z,6.25
2022-12-29T15:33:22.800Z,6.28
2022-12-29T15:35:33.567Z,6.15
2022-12-29T15:37:42.652Z,6.97
2022-12-29T15:39:50.223Z,6.85
2022-12-29T15:42:04.383Z,6.63
2022-12-29T15:44:18.525Z,6.35
2022-12-29T15:46:25.782Z,7.15
2022-12-29T15:48:34.428Z,7.15
2022-12-29T15:50:45.048Z,6.70
2022-12-29T15:52:54.215Z,6.85
2022-12-29T15:55:02.161Z,6.85
2022-12-29T15:57:19.279Z,7.63
2022-12-29T15:59:31.026Z,6.40
2022-12-29T16:01:40.354Z,6.50
2022-12-29T16:03:49.336Z,7.22
2022-12-29T16:05:58.499Z,8.10
2022-12-29T16:08:08.549Z,6.57
2022-12-29T16:10:32.220Z,7.20
2022-12-29T16:12:40.873Z,7.10
2022-12-29T16:17:14.639Z,7.03
2022-12-29T16:19:26.645Z,7.03
2022-12-29T16:21:37.107Z,7.55
2022-12-29T16:23:51.588Z,6.53
2022-12-29T16:26:00.493Z,7.75
2022-12-29T16:28:18.311Z,7.22
2022-12-29T16:30:33.097Z,6.70
2022-12-29T16:32:51.317Z,6.93
2022-12-29T16:35:14.818Z,7.20
2022-12-29T16:37:34.196Z,8.02
2022-12-29T16:39:43.675Z,6.80
2022-12-29T16:41:50.560Z,6.97
2022-12-29T16:44:17.145Z,7.75
2022-12-29T16:46:30.973Z,7.30
2022-12-29T16:48:40.463Z,7.55
2022-12-29T16:50:48.617Z,7.60
2022-12-29T16:52:55.864Z,7.57
2022-12-29T16:55:05.283Z,7.15
2022-12-29T16:57:13.184Z,7.47
2022-12-29T16:59:35.390Z,8.10
2022-12-29T17:04:14.274Z,7.10
2022-12-29T17:06:22.381Z,7.55
2022-12-29T17:08:29.384Z,8.10
2022-12-29T17:10:51.517Z,7.75
2022-12-29T17:12:58.353Z,7.95
2022-12-29T17:15:10.334Z,7.78
2022-12-29T17:17:22.051Z,7.70
2022-12-29T17:21:37.945Z,8.38
2022-12-29T17:23:45.282Z,7.70
2022-12-29T17:25:53.870Z,8.15
2022-12-29T17:28:03.566Z,9.07
2022-12-29T17:30:16.272Z,9.65
2022-12-29T17:32:25.046Z,11.15
2022-12-29T17:34:37.153Z,10.45
2022-12-29T17:36:44.254Z,9.65
2022-12-29T17:38:51.174Z,9.65
2022-12-29T17:41:00.118Z,8.98
2022-12-29T17:43:06.860Z,9.63
2022-12-29T17:45:18.575Z,8.82
2022-12-29T17:47:25.707Z,9.15
2022-12-29T17:49:35.137Z,9.25
2022-12-29T17:51:43.297Z,8.48
2022-12-29T17:53:51.349Z,9.10
2022-12-29T17:56:01.196Z,8.77
2022-12-29T17:58:20.617Z,8.65
2022-12-29T18:00:29.021Z,8.77
2022-12-29T18:02:36.498Z,8.32
2022-12-29T18:04:43.485Z,7.78
2022-12-29T18:06:51.013Z,7.53
2022-12-29T18:08:57.899Z,8.40
2022-12-29T18:11:06.891Z,7.82
2022-12-29T18:13:22.994Z,8.32
2022-12-29T18:15:32.452Z,7.40
2022-12-29T18:17:39.272Z,7.70
2022-12-29T18:19:46.455Z,7.40
2022-12-29T18:21:53.381Z,7.22
2022-12-29T18:24:00.665Z,7.25
2022-12-29T18:26:17.133Z,7.05
2022-12-29T18:28:27.623Z,7.03
2022-12-29T18:30:34.549Z,7.07
2022-12-29T18:32:41.729Z,7.13
2022-12-29T18:34:49.377Z,6.97
2022-12-29T18:36:56.759Z,7.28
2022-12-29T18:39:03.687Z,7.50
2022-12-29T18:41:19.159Z,7.22
2022-12-29T18:43:26.393Z,6.18
2022-12-29T18:45:36.044Z,7.07
2022-12-29T18:47:42.910Z,7.18
2022-12-29T18:49:50.089Z,7.47
2022-12-29T18:51:57.116Z,7.25
2022-12-29T18:54:05.374Z,6.70
2022-12-29T18:56:14.272Z,7.05
2022-12-29T18:58:21.990Z,7.82
2022-12-29T19:00:29.132Z,6.93
2022-12-29T19:02:36.405Z,7.18
2022-12-29T19:04:43.329Z,7.38
2022-12-29T19:06:50.416Z,7.35
2022-12-29T19:08:57.333Z,6.72
2022-12-29T19:11:04.786Z,7.57
2022-12-29T19:13:18.935Z,6.72
2022-12-29T19:15:28.362Z,6.80
2022-12-29T19:17:35.328Z,8.10
2022-12-29T19:19:42.561Z,7.95
2022-12-29T19:21:49.588Z,6.30
2022-12-29T19:23:56.853Z,7.68
2022-12-29T19:26:03.752Z,7.50
2022-12-29T19:28:18.421Z,7.68
2022-12-29T19:30:25.789Z,7.63
2022-12-29T19:32:33.073Z,7.35
2022-12-29T19:34:40.159Z,7.65
2022-12-29T19:36:47.999Z,7.72
2022-12-29T19:38:54.976Z,7.72
2022-12-29T19:41:02.263Z,7.53
2022-12-29T19:43:09.085Z,7.32
2022-12-29T19:45:18.735Z,7.35
2022-12-29T19:47:30.074Z,7.72
2022-12-29T19:49:39.286Z,7.40
2022-12-29T19:51:46.104Z,8.43
2022-12-29T19:53:53.392Z,7.85
2022-12-29T19:56:00.367Z,7.93
2022-12-29T19:58:07.548Z,7.53
2022-12-29T20:00:17.750Z,8.25
2022-12-29T20:02:27.162Z,8.55
2022-12-29T20:04:34.369Z,8.05
2022-12-29T20:06:41.607Z,8.05
2022-12-29T20:08:48.644Z,8.52
2022-12-29T20:11:02.168Z,8.02
2022-12-29T20:13:09.440Z,8.65
2022-12-29T20:15:18.673Z,7.78
2022-12-29T20:17:45.715Z,8.55
2022-12-29T20:19:53.313Z,8.27
2022-12-29T20:22:00.159Z,8.57
2022-12-29T20:24:07.467Z,8.60
2022-12-29T20:26:18.028Z,8.70
2022-12-29T20:28:25.365Z,8.18
2022-12-29T20:30:33.916Z,8.65
2022-12-29T20:32:41.268Z,9.35
2022-12-29T20:34:48.750Z,8.65
2022-12-29T20:36:55.933Z,9.40
2022-12-29T20:39:04.037Z,8.70
2022-12-29T20:41:11.541Z,9.05
2022-12-29T20:43:19.628Z,8.98
2022-12-29T20:45:27.236Z,9.02
2022-12-29T20:47:35.888Z,9.05
2022-12-29T20:49:43.066Z,9.30
2022-12-29T20:52:07.016Z,8.75
2022-12-29T20:54:14.836Z,9.70
2022-12-29T20:56:23.710Z,9.40
2022-12-29T20:58:30.839Z,9.05
2022-12-29T21:00:37.765Z,9.52
2022-12-29T21:02:46.717Z,9.02
2022-12-29T21:07:20.818Z,8.73
2022-12-29T21:09:27.701Z,9.20
2022-12-29T21:11:34.870Z,9.68
2022-12-29T21:13:41.847Z,9.80
2022-12-29T21:15:49.694Z,9.32
2022-12-29T21:17:58.462Z,9.10
2022-12-29T21:20:06.260Z,9.35
2022-12-29T21:22:13.387Z,10.35
2022-12-29T21:24:20.828Z,11.48
2022-12-29T21:26:28.370Z,9.88
2022-12-29T21:28:35.222Z,10.63
2022-12-29T21:30:42.853Z,10.32
2022-12-29T21:32:50.015Z,10.70
2022-12-29T21:34:59.218Z,11.50
2022-12-29T21:37:06.122Z,11.82
2022-12-29T21:39:13.872Z,12.40
2022-12-29T21:41:21.299Z,10.75
2022-12-29T21:43:28.430Z,11.73
2022-12-29T21:45:35.168Z,11.95
2022-12-29T21:47:58.767Z,11.57
2022-12-29T21:50:07.637Z,11.38
2022-12-29T21:52:14.820Z,10.38
2022-12-29T21:54:38.848Z,11.68
2022-12-29T21:56:47.465Z,11.50
2022-12-29T21:59:11.948Z,11.52
2022-12-29T22:01:35.531Z,10.65
2022-12-29T22:03:59.548Z,11.73
2022-12-29T22:06:29.819Z,11.07
2022-12-29T22:08:53.429Z,11.07
2022-12-29T22:11:17.305Z,12.43
2022-12-29T22:13:24.181Z,12.57
2022-12-29T22:15:32.475Z,11.95
2022-12-29T22:17:42.434Z,13.52
2022-12-29T22:19:53.815Z,14.77
2022-12-29T22:22:02.530Z,16.65
2022-12-29T22:24:11.299Z,16.20
2022-12-29T22:26:19.163Z,17.33
2022-12-29T22:28:26.694Z,17.45
2022-12-29T22:30:33.663Z,17.95
2022-12-29T22:32:40.925Z,18.15
2022-12-29T22:34:47.777Z,18.40
2022-12-29T22:36:54.900Z,22.40
2022-12-29T22:39:03.674Z,21.45
2022-12-29T22:41:10.798Z,21.65
2022-12-29T22:43:17.673Z,19.98
2022-12-29T22:45:24.955Z,19.77
2022-12-29T22:47:31.883Z,19.25
2022-12-29T22:49:39.065Z,18.58
2022-12-29T22:51:46.092Z,16.90
2022-12-29T22:53:53.599Z,17.15
2022-12-29T22:56:08.605Z,14.98
2022-12-29T22:58:15.777Z,15.40
2022-12-29T23:00:22.708Z,16.35
2022-12-29T23:02:31.432Z,16.35
2022-12-29T23:07:05.648Z,15.85
2022-12-29T23:09:14.368Z,15.18
2022-12-29T23:11:23.038Z,15.35
2022-12-29T23:13:29.982Z,14.98
2022-12-29T23:15:37.268Z,15.75
2022-12-29T23:17:44.172Z,15.57
2022-12-29T23:19:51.403Z,14.27
2022-12-29T23:21:58.380Z,13.77
2022-12-29T23:24:08.784Z,14.25
2022-12-29T23:26:16.292Z,14.07
2022-12-29T23:28:24.837Z,12.55
2022-12-29T23:30:32.192Z,12.98
2022-12-29T23:32:39.098Z,14.75
2022-12-29T23:34:46.190Z,13.25
2022-12-29T23:36:53.720Z,14.10
2022-12-29T23:39:00.851Z,14.32
2022-12-29T23:41:08.082Z,13.63
2022-12-29T23:43:15.213Z,14.20
2022-12-29T23:45:23.927Z,15.00
2022-12-29T23:47:31.162Z,15.23
2022-12-29T23:49:38.031Z,16.10
2022-12-29T23:51:45.228Z,16.80
2022-12-29T23:53:52.346Z,15.75
2022-12-29T23:55:59.792Z,16.83
2022-12-29T23:58:06.762Z,16.90
